Time,TemperatureF,DewpointF,PressureIn,WindDirection,WindDirectionDegrees,WindSpeedMPH,WindSpeedGustMPH,Humidity,HourlyPrecipIn,Conditions,Clouds,dailyrainin,SolarRadiationWatts/m^2,SoftwareType,DateUTC
2013-06-11 00:08:00,55.3,52.0,29.93,NNW,346,1.0,3.0,87,0.00,,,0.00,0,weatherlink.com 1.10,2013-06-11 07:08:00,
2013-06-11 00:23:00,54.9,51.0,29.93,NNW,346,1.0,4.0,87,0.00,,,0.00,0,weatherlink.com 1.10,2013-06-11 07:23:00,
2013-06-11 00:38:00,54.8,51.0,29.94,NNW,347,2.0,4.0,87,0.00,,,0.00,0,weatherlink.com 1.10,2013-06-11 07:38:00,
2013-06-11 00:53:00,54.6,51.0,29.94,NNW,347,1.0,4.0,88,0.00,,,0.00,0,weatherlink.com 1.10,2013-06-11 07:53:00,
2013-06-11 01:08:00,54.4,51.0,29.94,NNW,346,3.0,5.0,89,0.00,,,0.00,0,weatherlink.com 1.10,2013-06-11 08:08:00,
2013-06-11 01:23:00,54.1,51.0,29.94,NNW,347,2.0,4.0,89,0.00,,,0.00,0,weatherlink.com 1.10,2013-06-11 08:23:00,
2013-06-11 01:38:00,54.0,51.0,29.94,NNW,347,2.0,4.0,89,0.00,,,0.00,0,weatherlink.com 1.10,2013-06-11 08:38:00,
2013-06-11 01:53:00,53.9,51.0,29.94,NNW,347,1.0,3.0,89,0.00,,,0.00,0,weatherlink.com 1.10,2013-06-11 08:53:00,
2013-06-11 02:08:00,53.8,51.0,29.94,NNW,347,0.0,3.0,90,0.00,,,0.00,0,weatherlink.com 1.10,2013-06-11 09:08:00,
2013-06-11 02:23:00,53.8,51.0,29.94,NNW,346,1.0,2.0,89,0.00,,,0.00,0,weatherlink.com 1.10,2013-06-11 09:23:00,
2013-06-11 02:38:00,53.7,51.0,29.94,NNW,347,0.0,2.0,89,0.00,,,0.00,0,weatherlink.com 1.10,2013-06-11 09:38:00,
2013-06-11 02:53:00,53.8,51.0,29.94,NNW,347,0.0,2.0,90,0.00,,,0.00,0,weatherlink.com 1.10,2013-06-11 09:53:00,
2013-06-11 03:08:00,54.2,51.0,29.94,NNW,347,0.0,3.0,89,0.00,,,0.00,0,weatherlink.com 1.10,2013-06-11 10:08:00,
2013-06-11 03:23:00,54.5,51.0,29.93,NNW,347,1.0,2.0,89,0.00,,,0.00,0,weatherlink.com 1.10,2013-06-11 10:23:00,
2013-06-11 03:38:00,54.4,51.0,29.93,NNW,347,1.0,3.0,88,0.00,,,0.00,0,weatherlink.com 1.10,2013-06-11 10:38:00,
2013-06-11 03:53:00,54.4,51.0,29.93,NNW,347,1.0,3.0,89,0.00,,,0.00,0,weatherlink.com 1.10,2013-06-11 10:53:00,
2013-06-11 04:08:00,54.5,51.0,29.93,NNW,347,2.0,3.0,89,0.00,,,0.00,0,weatherlink.com 1.10,2013-06-11 11:08:00,
2013-06-11 04:23:00,54.7,52.0,29.93,NNW,347,2.0,4.0,89,0.00,,,0.00,0,weatherlink.com 1.10,2013-06-11 11:23:00,
2013-06-11 04:38:00,55.0,52.0,29.93,NNW,347,1.0,2.0,88,0.00,,,0.00,0,weatherlink.com 1.10,2013-06-11 11:38:00,
2013-06-11 04:53:00,55.1,52.0,29.93,NNW,347,2.0,4.0,88,0.00,,,0.00,0,weatherlink.com 1.10,2013-06-11 11:53:00,
2013-06-11 05:08:00,55.3,52.0,29.93,North,350,1.0,3.0,88,0.00,,,0.00,0,weatherlink.com 1.10,2013-06-11 12:08:00,
2013-06-11 05:23:00,55.4,52.0,29.93,North,350,2.0,2.0,88,0.00,,,0.00,0,weatherlink.com 1.10,2013-06-11 12:23:00,
2013-06-11 05:38:00,55.6,52.0,29.93,North,350,0.0,3.0,88,0.00,,,0.00,0,weatherlink.com 1.10,2013-06-11 12:38:00,
2013-06-11 05:53:00,55.9,52.0,29.94,North,350,4.0,4.0,87,0.00,,,0.00,0,weatherlink.com 1.10,2013-06-11 12:53:00,
2013-06-11 06:08:00,56.0,52.0,29.94,North,350,1.0,2.0,87,0.00,,,0.00,9,weatherlink.com 1.10,2013-06-11 13:08:00,
2013-06-11 06:23:00,56.3,53.0,29.94,North,350,1.0,3.0,87,0.00,,,0.00,11,weatherlink.com 1.10,2013-06-11 13:23:00,
2013-06-11 06:38:00,56.7,53.0,29.95,North,350,1.0,3.0,86,0.00,,,0.00,11,weatherlink.com 1.10,2013-06-11 13:38:00,
2013-06-11 06:54:00,57.1,53.0,29.95,NNW,328,0.0,5.0,86,0.00,,,0.00,49,weatherlink.com 1.10,2013-06-11 13:54:00,
2013-06-11 07:09:00,57.7,53.0,29.95,NNW,328,1.0,4.0,85,0.00,,,0.00,53,weatherlink.com 1.10,2013-06-11 14:09:00,
2013-06-11 07:24:00,58.0,54.0,29.95,NNW,328,2.0,4.0,85,0.00,,,0.00,90,weatherlink.com 1.10,2013-06-11 14:24:00,
2013-06-11 07:39:00,58.9,53.0,29.95,West,266,3.0,4.0,82,0.00,,,0.00,109,weatherlink.com 1.10,2013-06-11 14:39:00,
2013-06-11 07:54:00,59.3,54.0,29.95,SW,219,0.0,5.0,82,0.00,,,0.00,151,weatherlink.com 1.10,2013-06-11 14:54:00,
2013-06-11 08:09:00,59.9,54.0,29.96,SSE,164,2.0,5.0,80,0.00,,,0.00,160,weatherlink.com 1.10,2013-06-11 15:09:00,
2013-06-11 08:24:00,59.9,54.0,29.96,South,183,3.0,7.0,80,0.00,,,0.00,223,weatherlink.com 1.10,2013-06-11 15:24:00,
2013-06-11 08:39:00,60.3,54.0,29.96,South,178,0.0,4.0,79,0.00,,,0.00,214,weatherlink.com 1.10,2013-06-11 15:39:00,
2013-06-11 08:54:00,60.7,54.0,29.97,WSW,252,0.0,6.0,78,0.00,,,0.00,246,weatherlink.com 1.10,2013-06-11 15:54:00,
2013-06-11 09:09:00,61.5,54.0,29.97,NW,310,3.0,7.0,76,0.00,,,0.00,338,weatherlink.com 1.10,2013-06-11 16:09:00,
2013-06-11 09:24:00,62.2,55.0,29.97,WNW,298,7.0,7.0,76,0.00,,,0.00,443,weatherlink.com 1.10,2013-06-11 16:24:00,
2013-06-11 09:39:00,63.4,54.0,29.97,WSW,247,4.0,8.0,72,0.00,,,0.00,450,weatherlink.com 1.10,2013-06-11 16:39:00,
2013-06-11 09:54:00,63.9,54.0,29.97,NNW,338,4.0,9.0,71,0.00,,,0.00,849,weatherlink.com 1.10,2013-06-11 16:54:00,
2013-06-11 10:09:00,65.4,54.0,29.97,West,269,5.0,11.0,67,0.00,,,0.00,766,weatherlink.com 1.10,2013-06-11 17:09:00,
2013-06-11 10:24:00,66.0,54.0,29.97,West,271,4.0,8.0,66,0.00,,,0.00,798,weatherlink.com 1.10,2013-06-11 17:24:00,
2013-06-11 10:39:00,67.4,55.0,29.97,West,275,7.0,10.0,64,0.00,,,0.00,833,weatherlink.com 1.10,2013-06-11 17:39:00,
2013-06-11 10:54:00,68.2,55.0,29.97,WNW,300,2.0,9.0,62,0.00,,,0.00,856,weatherlink.com 1.10,2013-06-11 17:54:00,
2013-06-11 11:09:00,69.0,54.0,29.97,WSW,253,5.0,9.0,59,0.00,,,0.00,884,weatherlink.com 1.10,2013-06-11 18:09:00,
2013-06-11 11:24:00,69.7,54.0,29.97,WNW,282,5.0,11.0,58,0.00,,,0.00,849,weatherlink.com 1.10,2013-06-11 18:24:00,
2013-06-11 11:39:00,71.3,54.0,29.97,WSW,255,0.0,7.0,54,0.00,,,0.00,923,weatherlink.com 1.10,2013-06-11 18:39:00,
2013-06-11 11:54:00,71.7,54.0,29.97,SW,219,5.0,8.0,54,0.00,,,0.00,940,weatherlink.com 1.10,2013-06-11 18:54:00,
2013-06-11 12:10:00,72.5,55.0,29.97,WNW,301,5.0,8.0,54,0.00,,,0.00,967,weatherlink.com 1.10,2013-06-11 19:10:00,
2013-06-11 12:25:00,72.2,54.0,29.96,NE,34,2.0,5.0,54,0.00,,,0.00,958,weatherlink.com 1.10,2013-06-11 19:25:00,
2013-06-11 12:40:00,73.5,55.0,29.95,NNW,338,2.0,8.0,52,0.00,,,0.00,963,weatherlink.com 1.10,2013-06-11 19:40:00,
2013-06-11 12:55:00,75.0,54.0,29.95,NNW,343,5.0,9.0,49,0.00,,,0.00,962,weatherlink.com 1.10,2013-06-11 19:55:00,
2013-06-11 13:10:00,76.7,55.0,29.94,West,261,3.0,10.0,47,0.00,,,0.00,962,weatherlink.com 1.10,2013-06-11 20:10:00,
2013-06-11 13:25:00,76.9,55.0,29.94,WNW,298,8.0,10.0,47,0.00,,,0.00,954,weatherlink.com 1.10,2013-06-11 20:25:00,
2013-06-11 13:40:00,77.3,55.0,29.93,West,274,4.0,10.0,46,0.00,,,0.00,951,weatherlink.com 1.10,2013-06-11 20:40:00,
2013-06-11 13:55:00,77.5,56.0,29.93,WNW,302,6.0,11.0,47,0.00,,,0.00,967,weatherlink.com 1.10,2013-06-11 20:55:00,
2013-06-11 14:10:00,77.3,55.0,29.93,WNW,284,6.0,11.0,47,0.00,,,0.00,986,weatherlink.com 1.10,2013-06-11 21:10:00,
2013-06-11 14:25:00,77.0,56.0,29.93,NW,306,5.0,10.0,48,0.00,,,0.00,650,weatherlink.com 1.10,2013-06-11 21:25:00,
2013-06-11 14:40:00,76.2,56.0,29.92,WNW,300,3.0,13.0,49,0.00,,,0.00,726,weatherlink.com 1.10,2013-06-11 21:40:00,
2013-06-11 14:55:00,74.7,55.0,29.92,WSW,251,7.0,13.0,51,0.00,,,0.00,431,weatherlink.com 1.10,2013-06-11 21:55:00,
2013-06-11 15:10:00,76.2,55.0,29.92,WSW,252,8.0,12.0,48,0.00,,,0.00,705,weatherlink.com 1.10,2013-06-11 22:10:00,
2013-06-11 15:25:00,76.7,55.0,29.92,West,275,4.0,12.0,47,0.00,,,0.00,420,weatherlink.com 1.10,2013-06-11 22:25:00,
2013-06-11 15:40:00,77.1,55.0,29.91,West,279,5.0,11.0,47,0.00,,,0.00,721,weatherlink.com 1.10,2013-06-11 22:40:00,
2013-06-11 15:55:00,75.2,55.0,29.91,West,260,4.0,12.0,49,0.00,,,0.00,311,weatherlink.com 1.10,2013-06-11 22:55:00,
2013-06-11 16:10:00,74.5,55.0,29.91,WSW,250,4.0,11.0,51,0.00,,,0.00,598,weatherlink.com 1.10,2013-06-11 23:10:00,
2013-06-11 16:25:00,74.2,55.0,29.91,WNW,286,2.0,10.0,52,0.00,,,0.00,260,weatherlink.com 1.10,2013-06-11 23:25:00,
2013-06-11 16:40:00,73.0,55.0,29.90,WNW,302,4.0,12.0,53,0.00,,,0.00,274,weatherlink.com 1.10,2013-06-11 23:40:00,
2013-06-11 16:55:00,71.5,55.0,29.91,NW,306,4.0,14.0,56,0.00,,,0.00,304,weatherlink.com 1.10,2013-06-11 23:55:00,
2013-06-11 17:10:00,71.5,54.0,29.90,WSW,258,8.0,15.0,55,0.00,,,0.00,388,weatherlink.com 1.10,2013-06-12 00:10:00,
2013-06-11 17:25:00,71.0,54.0,29.90,NW,310,5.0,15.0,56,0.00,,,0.00,359,weatherlink.com 1.10,2013-06-12 00:25:00,
2013-06-11 17:40:00,70.7,55.0,29.90,West,273,11.0,11.0,57,0.00,,,0.00,348,weatherlink.com 1.10,2013-06-12 00:40:00,
2013-06-11 17:55:00,69.2,55.0,29.89,WSW,250,4.0,12.0,60,0.00,,,0.00,200,weatherlink.com 1.10,2013-06-12 00:55:00,
2013-06-11 18:10:00,68.8,54.0,29.89,West,280,6.0,9.0,60,0.00,,,0.00,114,weatherlink.com 1.10,2013-06-12 01:10:00,
2013-06-11 18:25:00,67.9,54.0,29.89,WNW,286,13.0,13.0,61,0.00,,,0.00,104,weatherlink.com 1.10,2013-06-12 01:25:00,
2013-06-11 18:40:00,67.4,54.0,29.89,WNW,294,7.0,16.0,62,0.00,,,0.00,162,weatherlink.com 1.10,2013-06-12 01:40:00,
2013-06-11 18:55:00,68.1,54.0,29.88,West,273,4.0,11.0,62,0.00,,,0.00,206,weatherlink.com 1.10,2013-06-12 01:55:00,
2013-06-11 19:10:00,67.5,54.0,29.89,West,273,5.0,12.0,62,0.00,,,0.00,91,weatherlink.com 1.10,2013-06-12 02:10:00,
2013-06-11 19:25:00,66.5,54.0,29.89,West,277,3.0,12.0,64,0.00,,,0.00,70,weatherlink.com 1.10,2013-06-12 02:25:00,
2013-06-11 19:40:00,65.9,53.0,29.89,NNW,346,2.0,9.0,64,0.00,,,0.00,51,weatherlink.com 1.10,2013-06-12 02:40:00,
2013-06-11 19:55:00,65.7,54.0,29.89,West,261,3.0,12.0,65,0.00,,,0.00,53,weatherlink.com 1.10,2013-06-12 02:55:00,
2013-06-11 20:10:00,65.2,53.0,29.89,WNW,290,3.0,13.0,65,0.00,,,0.00,26,weatherlink.com 1.10,2013-06-12 03:10:00,
2013-06-11 20:25:00,64.3,53.0,29.89,WSW,248,4.0,10.0,67,0.00,,,0.00,7,weatherlink.com 1.10,2013-06-12 03:25:00,
2013-06-11 20:40:00,63.5,53.0,29.89,WSW,244,6.0,10.0,69,0.00,,,0.00,0,weatherlink.com 1.10,2013-06-12 03:40:00,
2013-06-11 20:55:00,62.4,52.0,29.90,West,277,7.0,9.0,70,0.00,,,0.00,0,weatherlink.com 1.10,2013-06-12 03:55:00,
2013-06-11 21:10:00,61.4,52.0,29.90,WSW,257,6.0,9.0,72,0.00,,,0.00,0,weatherlink.com 1.10,2013-06-12 04:10:00,
2013-06-11 21:25:00,60.2,52.0,29.90,NW,304,5.0,8.0,74,0.00,,,0.00,0,weatherlink.com 1.10,2013-06-12 04:25:00,
2013-06-11 21:40:00,59.6,52.0,29.91,WNW,289,9.0,10.0,76,0.00,,,0.00,0,weatherlink.com 1.10,2013-06-12 04:40:00,
2013-06-11 21:55:00,59.3,52.0,29.91,West,264,4.0,8.0,76,0.00,,,0.00,0,weatherlink.com 1.10,2013-06-12 04:55:00,
2013-06-11 22:10:00,59.1,52.0,29.91,West,271,2.0,6.0,78,0.00,,,0.00,0,weatherlink.com 1.10,2013-06-12 05:10:00,
2013-06-11 22:25:00,58.7,52.0,29.91,WSW,246,1.0,7.0,79,0.00,,,0.00,0,weatherlink.com 1.10,2013-06-12 05:25:00,
2013-06-11 22:40:00,58.4,52.0,29.91,WNW,285,3.0,9.0,79,0.00,,,0.00,0,weatherlink.com 1.10,2013-06-12 05:40:00,
2013-06-11 22:55:00,58.5,52.0,29.91,West,263,4.0,5.0,79,0.00,,,0.00,0,weatherlink.com 1.10,2013-06-12 05:55:00,
2013-06-11 23:10:00,58.3,51.0,29.91,WNW,283,2.0,8.0,78,0.00,,,0.00,0,weatherlink.com 1.10,2013-06-12 06:10:00,
2013-06-11 23:25:00,58.1,52.0,29.90,West,259,2.0,6.0,79,0.00,,,0.00,0,weatherlink.com 1.10,2013-06-12 06:25:00,
2013-06-11 23:40:00,58.1,51.0,29.90,West,267,0.0,4.0,77,0.00,,,0.00,0,weatherlink.com 1.10,2013-06-12 06:40:00,
2013-06-11 23:55:00,58.5,49.0,29.91,WNW,298,2.0,7.0,72,0.00,,,0.00,0,weatherlink.com 1.10,2013-06-12 06:55:00,